Burton City, Ohio
Current Conditions -  °F | °C
As of 6:56 PM on Friday 24 Oct 2014 (Local Time) from KBJJ Reporting Station
Overcast Overcast  
Wind Chill: 59°   Ceiling: 4200
Heat Index: 59°   Visibility: 10mi
Dew Point: 39°   Wind: 3mph
Humidity: 48%   Direction: 230°SW
Pressure: 30"   Gusts: NA
Location:  40.8369°N, 81.7632°W
Report Text: KBJJ 242256Z AUTO 23003KT 10SM OVC042 15/04 A3000 RMK AO2 SLP163 T01500039 TSNO
Loading
Personal Weather Stations






























Interactive Weather Map
Tropical Storm Tracking
New forecast layout! Learn more

10-Day Weather Forecast

Advertisements
Track Severe Weather on mobile